sensor_id;sensor_type;location;lat;lon;timestamp;temperature;humidity
25568;DHT22;13455;51.480;7.594;2024-03-07T10:39:09;7.50;99.90
25568;DHT22;13455;51.480;7.594;2024-03-07T10:41:49;7.60;99.90
25568;DHT22;13455;51.480;7.594;2024-03-07T10:44:25;8.00;99.90
25568;DHT22;13455;51.480;7.594;2024-03-07T10:46:53;8.10;99.90
25568;DHT22;13455;51.480;7.594;2024-03-07T10:52:06;8.10;99.90
25568;DHT22;13455;51.480;7.594;2024-03-07T10:54:54;8.00;99.90
25568;DHT22;13455;51.480;7.594;2024-03-07T11:00:26;8.30;99.90
25568;DHT22;13455;51.480;7.594;2024-03-07T11:05:33;8.30;99.90
25568;DHT22;13455;51.480;7.594;2024-03-07T11:12:57;8.40;99.90
25568;DHT22;13455;51.480;7.594;2024-03-07T11:15:23;8.60;99.90
25568;DHT22;13455;51.480;7.594;2024-03-07T11:17:52;8.80;99.90
25568;DHT22;13455;51.480;7.594;2024-03-07T11:20:23;9.10;99.90
25568;DHT22;13455;51.480;7.594;2024-03-07T11:35:34;9.30;99.90
25568;DHT22;13455;51.480;7.594;2024-03-07T11:42:57;9.10;99.90
25568;DHT22;13455;51.480;7.594;2024-03-07T11:45:30;9.40;99.90
25568;DHT22;13455;51.480;7.594;2024-03-07T11:47:59;9.80;99.90
25568;DHT22;13455;51.480;7.594;2024-03-07T11:50:30;9.40;99.90
25568;DHT22;13455;51.480;7.594;2024-03-07T11:53:01;9.50;99.90
25568;DHT22;13455;51.480;7.594;2024-03-07T11:55:27;9.90;99.90
25568;DHT22;13455;51.480;7.594;2024-03-07T12:00:26;10.20;99.90
25568;DHT22;13455;51.480;7.594;2024-03-07T12:02:55;10.60;99.90
25568;DHT22;13455;51.480;7.594;2024-03-07T12:05:21;10.50;99.90
25568;DHT22;13455;51.480;7.594;2024-03-07T12:07:46;10.40;99.90
25568;DHT22;13455;51.480;7.594;2024-03-07T12:10:12;10.80;99.90
25568;DHT22;13455;51.480;7.594;2024-03-07T12:15:08;10.20;99.90
25568;DHT22;13455;51.480;7.594;2024-03-07T12:17:46;10.20;99.90
25568;DHT22;13455;51.480;7.594;2024-03-07T12:20:15;10.50;99.90
25568;DHT22;13455;51.480;7.594;2024-03-07T12:23:10;9.90;99.90
25568;DHT22;13455;51.480;7.594;2024-03-07T12:25:38;9.90;99.90
25568;DHT22;13455;51.480;7.594;2024-03-07T12:28:12;9.70;99.90
25568;DHT22;13455;51.480;7.594;2024-03-07T12:30:51;9.90;99.90
25568;DHT22;13455;51.480;7.594;2024-03-07T12:33:18;9.80;99.90
25568;DHT22;13455;51.480;7.594;2024-03-07T12:35:49;9.70;99.90
25568;DHT22;13455;51.480;7.594;2024-03-07T12:38:17;9.80;99.90
25568;DHT22;13455;51.480;7.594;2024-03-07T12:40:43;9.80;99.90
25568;DHT22;13455;51.480;7.594;2024-03-07T12:43:17;9.90;99.90
25568;DHT22;13455;51.480;7.594;2024-03-07T12:45:48;9.60;99.90
25568;DHT22;13455;51.480;7.594;2024-03-07T12:48:15;9.50;99.90
25568;DHT22;13455;51.480;7.594;2024-03-07T12:50:42;9.60;99.90
25568;DHT22;13455;51.480;7.594;2024-03-07T12:53:10;9.40;99.90
25568;DHT22;13455;51.480;7.594;2024-03-07T12:55:40;9.40;99.90
25568;DHT22;13455;51.480;7.594;2024-03-07T12:58:11;9.20;99.90
25568;DHT22;13455;51.480;7.594;2024-03-07T13:00:38;9.40;99.90
25568;DHT22;13455;51.480;7.594;2024-03-07T13:03:04;9.30;99.90
25568;DHT22;13455;51.480;7.594;2024-03-07T13:05:31;9.30;99.90
25568;DHT22;13455;51.480;7.594;2024-03-07T13:07:56;9.30;99.90
25568;DHT22;13455;51.480;7.594;2024-03-07T13:10:22;9.30;99.90
25568;DHT22;13455;51.480;7.594;2024-03-07T13:12:49;9.30;99.90
25568;DHT22;13455;51.480;7.594;2024-03-07T13:15:18;9.70;99.90
25568;DHT22;13455;51.480;7.594;2024-03-07T13:17:47;9.80;99.90
25568;DHT22;13455;51.480;7.594;2024-03-07T13:20:14;9.80;99.90
25568;DHT22;13455;51.480;7.594;2024-03-07T13:22:41;10.00;99.90
25568;DHT22;13455;51.480;7.594;2024-03-07T13:25:20;10.30;99.90
25568;DHT22;13455;51.480;7.594;2024-03-07T13:32:58;11.50;99.90
25568;DHT22;13455;51.480;7.594;2024-03-07T13:35:25;11.50;99.90
25568;DHT22;13455;51.480;7.594;2024-03-07T13:37:52;11.80;99.90
25568;DHT22;13455;51.480;7.594;2024-03-07T13:40:24;11.80;99.90
25568;DHT22;13455;51.480;7.594;2024-03-07T13:45:29;12.10;99.90
25568;DHT22;13455;51.480;7.594;2024-03-07T13:48:04;11.60;99.90
25568;DHT22;13455;51.480;7.594;2024-03-07T13:50:31;11.70;99.90
25568;DHT22;13455;51.480;7.594;2024-03-07T13:52:58;11.50;99.90
25568;DHT22;13455;51.480;7.594;2024-03-07T13:55:39;11.90;99.90
25568;DHT22;13455;51.480;7.594;2024-03-07T13:58:11;11.70;99.90
25568;DHT22;13455;51.480;7.594;2024-03-07T14:00:47;11.50;99.90
25568;DHT22;13455;51.480;7.594;2024-03-07T14:03:40;11.60;99.90
25568;DHT22;13455;51.480;7.594;2024-03-07T14:06:37;11.50;99.90
25568;DHT22;13455;51.480;7.594;2024-03-07T14:12:34;11.20;99.90
25568;DHT22;13455;51.480;7.594;2024-03-07T14:15:36;11.10;99.90
25568;DHT22;13455;51.480;7.594;2024-03-07T14:26:52;11.30;99.90
25568;DHT22;13455;51.480;7.594;2024-03-07T14:32:29;10.90;99.90
25568;DHT22;13455;51.480;7.594;2024-03-07T14:35:16;10.70;99.90
25568;DHT22;13455;51.480;7.594;2024-03-07T14:40:30;10.60;99.90
25568;DHT22;13455;51.480;7.594;2024-03-07T14:45:30;10.60;99.90
25568;DHT22;13455;51.480;7.594;2024-03-07T14:47:57;10.40;99.90
25568;DHT22;13455;51.480;7.594;2024-03-07T14:50:24;10.40;99.90
25568;DHT22;13455;51.480;7.594;2024-03-07T14:55:18;10.10;99.90
25568;DHT22;13455;51.480;7.594;2024-03-07T14:57:45;10.00;99.90
25568;DHT22;13455;51.480;7.594;2024-03-07T15:02:52;9.80;99.90
25568;DHT22;13455;51.480;7.594;2024-03-07T15:05:22;9.80;99.90
25568;DHT22;13455;51.480;7.594;2024-03-07T15:07:50;9.80;99.90
25568;DHT22;13455;51.480;7.594;2024-03-07T15:10:30;10.00;99.90
25568;DHT22;13455;51.480;7.594;2024-03-07T15:17:57;9.80;99.90
25568;DHT22;13455;51.480;7.594;2024-03-07T15:20:26;9.80;99.90
25568;DHT22;13455;51.480;7.594;2024-03-07T15:22:57;9.90;99.90
25568;DHT22;13455;51.480;7.594;2024-03-07T15:25:23;9.70;99.90
25568;DHT22;13455;51.480;7.594;2024-03-07T17:08:15;8.50;99.90
25568;DHT22;13455;51.480;7.594;2024-03-07T17:10:42;8.50;99.90
25568;DHT22;13455;51.480;7.594;2024-03-07T17:13:08;8.30;99.90
25568;DHT22;13455;51.480;7.594;2024-03-07T17:15:37;8.20;99.90
25568;DHT22;13455;51.480;7.594;2024-03-07T17:18:04;8.10;99.90
25568;DHT22;13455;51.480;7.594;2024-03-07T17:23:01;8.00;99.90
25568;DHT22;13455;51.480;7.594;2024-03-07T17:25:27;8.00;99.90
25568;DHT22;13455;51.480;7.594;2024-03-07T17:27:56;8.00;99.90
25568;DHT22;13455;51.480;7.594;2024-03-07T17:30:26;7.90;99.90
25568;DHT22;13455;51.480;7.594;2024-03-07T17:32:52;7.80;99.90
25568;DHT22;13455;51.480;7.594;2024-03-07T17:35:20;7.80;99.90
25568;DHT22;13455;51.480;7.594;2024-03-07T17:37:47;7.80;99.90
25568;DHT22;13455;51.480;7.594;2024-03-07T17:40:13;7.70;99.90
25568;DHT22;13455;51.480;7.594;2024-03-07T17:42:49;7.70;99.90
25568;DHT22;13455;51.480;7.594;2024-03-07T18:07:20;7.20;99.90
25568;DHT22;13455;51.480;7.594;2024-03-07T18:09:50;7.20;99.90
25568;DHT22;13455;51.480;7.594;2024-03-07T18:12:19;7.10;99.90
25568;DHT22;13455;51.480;7.594;2024-03-07T20:50:17;4.90;99.90
25568;DHT22;13455;51.480;7.594;2024-03-07T20:52:43;4.90;99.90
25568;DHT22;13455;51.480;7.594;2024-03-07T20:55:13;4.80;99.90
25568;DHT22;13455;51.480;7.594;2024-03-07T20:57:44;4.80;99.90
25568;DHT22;13455;51.480;7.594;2024-03-07T21:00:18;4.70;99.90
25568;DHT22;13455;51.480;7.594;2024-03-07T21:02:52;4.70;99.90
25568;DHT22;13455;51.480;7.594;2024-03-07T21:05:18;4.60;99.90
25568;DHT22;13455;51.480;7.594;2024-03-07T21:07:45;4.60;99.90
25568;DHT22;13455;51.480;7.594;2024-03-07T21:10:11;4.50;99.90
25568;DHT22;13455;51.480;7.594;2024-03-07T21:12:39;4.50;99.90
25568;DHT22;13455;51.480;7.594;2024-03-07T21:15:06;4.50;99.90
25568;DHT22;13455;51.480;7.594;2024-03-07T21:17:32;4.50;99.90
25568;DHT22;13455;51.480;7.594;2024-03-07T21:19:58;4.40;99.90
25568;DHT22;13455;51.480;7.594;2024-03-07T21:22:24;4.40;99.90
25568;DHT22;13455;51.480;7.594;2024-03-07T21:24:49;4.40;99.90
25568;DHT22;13455;51.480;7.594;2024-03-07T21:27:15;4.30;99.90
25568;DHT22;13455;51.480;7.594;2024-03-07T21:29:40;4.30;99.90
25568;DHT22;13455;51.480;7.594;2024-03-07T21:34:33;4.30;99.90
25568;DHT22;13455;51.480;7.594;2024-03-07T21:36:58;4.30;99.90
25568;DHT22;13455;51.480;7.594;2024-03-07T22:30:58;3.80;99.90
25568;DHT22;13455;51.480;7.594;2024-03-07T22:33:24;3.70;99.90
25568;DHT22;13455;51.480;7.594;2024-03-07T22:35:50;3.70;99.90
25568;DHT22;13455;51.480;7.594;2024-03-07T22:38:17;3.60;99.90
25568;DHT22;13455;51.480;7.594;2024-03-07T22:40:44;3.90;99.90
25568;DHT22;13455;51.480;7.594;2024-03-07T22:43:10;3.50;99.90
25568;DHT22;13455;51.480;7.594;2024-03-07T22:45:36;3.50;99.90
25568;DHT22;13455;51.480;7.594;2024-03-07T22:48:01;3.50;99.90
25568;DHT22;13455;51.480;7.594;2024-03-07T22:50:27;3.50;99.90
25568;DHT22;13455;51.480;7.594;2024-03-07T22:52:53;3.50;99.90
25568;DHT22;13455;51.480;7.594;2024-03-07T22:55:22;3.30;99.90
25568;DHT22;13455;51.480;7.594;2024-03-07T22:57:47;3.30;99.90
25568;DHT22;13455;51.480;7.594;2024-03-07T23:00:13;3.30;99.90
25568;DHT22;13455;51.480;7.594;2024-03-07T23:02:50;3.30;99.90
25568;DHT22;13455;51.480;7.594;2024-03-07T23:05:15;3.30;99.90
25568;DHT22;13455;51.480;7.594;2024-03-07T23:07:43;3.20;99.90
25568;DHT22;13455;51.480;7.594;2024-03-07T23:12:44;3.10;99.90
25568;DHT22;13455;51.480;7.594;2024-03-07T23:15:14;3.30;99.90
25568;DHT22;13455;51.480;7.594;2024-03-07T23:17:41;3.20;99.90
25568;DHT22;13455;51.480;7.594;2024-03-07T23:20:13;3.00;99.90
25568;DHT22;13455;51.480;7.594;2024-03-07T23:22:50;3.00;99.90
25568;DHT22;13455;51.480;7.594;2024-03-07T23:25:16;3.20;99.90
25568;DHT22;13455;51.480;7.594;2024-03-07T23:27:44;3.00;99.90
25568;DHT22;13455;51.480;7.594;2024-03-07T23:30:11;3.00;99.90
25568;DHT22;13455;51.480;7.594;2024-03-07T23:32:41;3.10;99.90
25568;DHT22;13455;51.480;7.594;2024-03-07T23:35:07;2.90;99.90
25568;DHT22;13455;51.480;7.594;2024-03-07T23:37:33;3.00;99.90
25568;DHT22;13455;51.480;7.594;2024-03-07T23:39:59;2.90;99.90
25568;DHT22;13455;51.480;7.594;2024-03-07T23:42:25;2.80;99.90
25568;DHT22;13455;51.480;7.594;2024-03-07T23:44:50;2.90;99.90
25568;DHT22;13455;51.480;7.594;2024-03-07T23:47:16;2.90;99.90
25568;DHT22;13455;51.480;7.594;2024-03-07T23:49:43;2.80;99.90
25568;DHT22;13455;51.480;7.594;2024-03-07T23:52:09;3.20;99.90
25568;DHT22;13455;51.480;7.594;2024-03-07T23:54:35;2.70;99.90
25568;DHT22;13455;51.480;7.594;2024-03-07T23:57:01;2.70;99.90
25568;DHT22;13455;51.480;7.594;2024-03-07T23:59:27;2.70;99.90
